Time;durP1;ratioP1;P1;durP2;ratioP2;P2;SDS_P1;SDS_P2;PMS_P1;PMS_P2;Temp;Humidity;BMP_temperature;BMP_pressure;BME280_temperature;BME280_humidity;BME280_pressure;Samples;Min_cycle;Max_cycle;Signal;HPM_P1;HPM_P2
2022/06/11 00:01:14;;;;;;;12.38;7.88;;;17.10;99.90;;;;;;5007711;28;20419;-85
2022/06/11 00:03:41;;;;;;;15.38;7.18;;;17.00;99.90;;;;;;5021906;28;20049;-84
2022/06/11 00:06:07;;;;;;;18.05;7.13;;;17.10;99.90;;;;;;5005600;28;20514;-85
2022/06/11 00:08:33;;;;;;;9.25;6.30;;;17.10;99.90;;;;;;4998434;28;20092;-85
2022/06/11 00:10:59;;;;;;;9.30;5.45;;;17.20;99.90;;;;;;4994239;28;20052;-85
2022/06/11 00:13:25;;;;;;;9.43;5.75;;;17.20;99.90;;;;;;5021688;28;20061;-84
2022/06/11 00:15:52;;;;;;;7.47;4.70;;;17.20;99.90;;;;;;5017251;28;20241;-85
2022/06/11 00:18:20;;;;;;;9.05;4.85;;;17.10;99.90;;;;;;5024604;28;20478;-84
2022/06/11 00:20:46;;;;;;;10.75;4.22;;;17.10;99.90;;;;;;5020665;28;20048;-85
2022/06/11 00:23:12;;;;;;;8.05;4.22;;;17.00;99.90;;;;;;5036359;28;20489;-85
2022/06/11 00:25:37;;;;;;;10.15;4.25;;;17.00;99.90;;;;;;5052359;28;20094;-86
2022/06/11 00:28:05;;;;;;;8.68;3.85;;;16.80;99.90;;;;;;5016590;28;20367;-85
2022/06/11 00:30:31;;;;;;;8.48;3.97;;;16.80;99.90;;;;;;5047117;28;20068;-84
2022/06/11 00:32:57;;;;;;;8.13;3.65;;;16.70;99.90;;;;;;5033718;28;20049;-84
2022/06/11 00:35:25;;;;;;;7.22;3.20;;;16.70;99.90;;;;;;5012209;28;20509;-85
2022/06/11 00:37:51;;;;;;;6.15;3.33;;;16.70;99.90;;;;;;5045809;28;20044;-85
2022/06/11 00:40:23;;;;;;;10.18;3.55;;;16.70;99.90;;;;;;5019325;28;20049;-85
2022/06/11 00:42:49;;;;;;;12.98;3.90;;;16.60;99.90;;;;;;5047076;28;20060;-84
2022/06/11 00:45:43;;;;;;;7.70;3.85;;;16.50;99.90;;;;;;5008377;28;20089;-85
2022/06/11 00:48:15;;;;;;;9.30;3.60;;;16.50;99.90;;;;;;5031414;28;20082;-84
2022/06/11 00:50:51;;;;;;;6.93;3.00;;;16.30;99.90;;;;;;5026019;28;20048;-86
2022/06/11 00:53:40;;;;;;;8.57;3.20;;;16.20;99.90;;;;;;5022114;28;20040;-85
2022/06/11 00:56:13;;;;;;;5.07;3.33;;;16.00;99.90;;;;;;5027037;28;20055;-85
2022/06/11 00:58:43;;;;;;;14.45;4.55;;;15.80;99.90;;;;;;5019635;28;20056;-84
2022/06/11 01:01:08;;;;;;;7.80;3.50;;;15.80;99.90;;;;;;5026609;28;20136;-85
2022/06/11 01:03:41;;;;;;;7.35;3.90;;;15.70;99.90;;;;;;5019579;28;20123;-85
2022/06/11 01:06:21;;;;;;;10.05;3.53;;;15.60;99.90;;;;;;5052498;28;20054;-84
2022/06/11 01:09:02;;;;;;;7.57;3.78;;;15.50;99.90;;;;;;5031123;28;20045;-85
2022/06/11 01:11:41;;;;;;;9.07;3.65;;;15.50;99.90;;;;;;5032816;28;20049;-84
2022/06/11 01:14:37;;;;;;;15.90;3.92;;;15.40;99.90;;;;;;5032544;28;20064;-85
2022/06/11 01:17:12;;;;;;;8.23;3.05;;;15.30;99.90;;;;;;5029809;28;20570;-84
2022/06/11 01:19:47;;;;;;;9.05;3.33;;;15.20;99.90;;;;;;5043364;28;20131;-85
2022/06/11 01:23:04;;;;;;;11.25;3.83;;;15.30;99.90;;;;;;5032412;28;20045;-85
2022/06/11 01:26:11;;;;;;;6.22;3.38;;;15.30;99.90;;;;;;5035404;28;20052;-84
2022/06/11 01:29:05;;;;;;;8.52;3.28;;;15.40;99.90;;;;;;4991401;28;20524;-85
2022/06/11 01:31:45;;;;;;;8.70;3.65;;;15.40;99.90;;;;;;5039926;28;20052;-86
2022/06/11 01:34:29;;;;;;;7.35;3.38;;;15.30;99.90;;;;;;5042798;28;20048;-84
2022/06/11 01:37:07;;;;;;;7.55;3.55;;;15.30;99.90;;;;;;5043273;28;20075;-83
2022/06/11 01:39:50;;;;;;;7.97;3.20;;;15.30;99.90;;;;;;5047539;28;20098;-84
2022/06/11 01:42:38;;;;;;;11.35;3.85;;;15.20;99.90;;;;;;5021817;28;20053;-84
2022/06/11 01:45:19;;;;;;;9.70;3.13;;;15.10;99.90;;;;;;5041223;28;20044;-84
2022/06/11 01:47:47;;;;;;;9.32;3.50;;;15.00;99.90;;;;;;5038257;28;20049;-84
2022/06/11 01:50:16;;;;;;;9.85;3.47;;;14.90;99.90;;;;;;5043109;28;20067;-84
2022/06/11 01:52:48;;;;;;;8.32;3.58;;;14.80;99.90;;;;;;5047218;28;20093;-84
2022/06/11 01:55:34;;;;;;;6.43;3.50;;;14.80;99.90;;;;;;5046994;28;20033;-86
2022/06/11 01:58:11;;;;;;;11.30;4.47;;;14.70;99.90;;;;;;5028486;28;20105;-83
2022/06/11 02:00:42;;;;;;;8.85;4.38;;;14.60;99.90;;;;;;5036913;28;20049;-84
2022/06/11 02:03:24;;;;;;;8.98;4.18;;;14.50;99.90;;;;;;5019699;28;20081;-85
2022/06/11 02:06:09;;;;;;;13.43;4.25;;;14.40;99.90;;;;;;5039048;28;20109;-84
2022/06/11 02:08:52;;;;;;;9.48;4.70;;;14.40;99.90;;;;;;5047966;28;20124;-84
2022/06/11 02:11:30;;;;;;;8.70;4.55;;;14.40;99.90;;;;;;5029681;28;20095;-85
2022/06/11 02:14:24;;;;;;;12.60;4.80;;;14.30;99.90;;;;;;5036983;28;20540;-84
2022/06/11 02:17:02;;;;;;;12.10;5.45;;;14.30;99.90;;;;;;5032547;28;20054;-84
2022/06/11 02:19:56;;;;;;;11.55;5.00;;;14.20;99.90;;;;;;5039363;28;20559;-85
2022/06/11 02:22:39;;;;;;;10.77;5.03;;;14.10;99.90;;;;;;5028126;28;20052;-84
2022/06/11 02:25:36;;;;;;;11.10;4.68;;;14.00;99.90;;;;;;5047173;28;20048;-85
2022/06/11 02:28:04;;;;;;;;;;;14.00;99.90;;;;;;5029733;28;20528;-84
2022/06/11 02:30:31;;;;;;;11.95;5.13;;;13.90;99.90;;;;;;5033847;28;19924;-85
2022/06/11 02:32:59;;;;;;;14.13;5.25;;;13.90;99.90;;;;;;5049594;28;20079;-85
2022/06/11 02:35:30;;;;;;;13.82;5.90;;;13.90;99.90;;;;;;5068693;28;20367;-84
2022/06/11 02:37:56;;;;;;;11.65;6.38;;;14.00;99.90;;;;;;5047349;28;20248;-84
2022/06/11 02:40:26;;;;;;;15.45;6.95;;;14.00;99.90;;;;;;5050286;28;20127;-84
2022/06/11 02:42:53;;;;;;;14.45;7.97;;;14.00;99.90;;;;;;5034590;28;20520;-85
2022/06/11 02:45:19;;;;;;;12.25;8.85;;;14.10;99.90;;;;;;5006033;28;20363;-85
2022/06/11 02:47:48;;;;;;;16.85;9.40;;;14.00;99.90;;;;;;5048627;28;20434;-84
2022/06/11 02:50:33;;;;;;;18.17;9.75;;;13.90;99.90;;;;;;5043268;28;20041;-84
2022/06/11 02:53:01;;;;;;;21.20;10.75;;;13.90;99.90;;;;;;5032297;28;20079;-85
2022/06/11 02:55:27;;;;;;;18.90;10.45;;;13.90;99.90;;;;;;5020639;28;20045;-84
2022/06/11 02:57:53;;;;;;;16.70;11.32;;;13.90;99.90;;;;;;5039316;28;20084;-85
2022/06/11 03:00:27;;;;;;;22.92;11.38;;;14.00;99.90;;;;;;5012694;28;20067;-88
2022/06/11 03:02:52;;;;;;;17.30;10.80;;;14.10;99.90;;;;;;5041421;28;20053;-84
2022/06/11 03:05:22;;;;;;;17.70;10.88;;;14.20;99.90;;;;;;5049663;28;20091;-87
2022/06/11 03:07:48;;;;;;;17.25;9.63;;;14.20;99.90;;;;;;5033168;28;20044;-85
2022/06/11 03:10:17;;;;;;;18.67;8.90;;;14.40;99.90;;;;;;5023580;28;20395;-84
2022/06/11 03:12:46;;;;;;;14.10;7.97;;;14.60;99.90;;;;;;5046277;28;20040;-84
2022/06/11 03:15:14;;;;;;;15.93;8.48;;;14.60;99.90;;;;;;5033748;28;20059;-85
2022/06/11 03:17:40;;;;;;;16.08;7.65;;;14.60;99.90;;;;;;5059826;28;20053;-85
2022/06/11 03:20:07;;;;;;;16.10;8.00;;;14.60;99.90;;;;;;5038816;28;20699;-84
2022/06/11 03:22:34;;;;;;;19.23;9.00;;;14.60;99.90;;;;;;5042653;28;20554;-84
2022/06/11 03:24:59;;;;;;;16.48;8.00;;;14.60;99.90;;;;;;5033462;28;20040;-84
2022/06/11 03:27:25;;;;;;;14.88;8.40;;;14.50;99.90;;;;;;5021589;28;20504;-84
2022/06/11 03:29:51;;;;;;;16.05;8.52;;;14.40;99.90;;;;;;5030752;28;20060;-84
2022/06/11 03:32:18;;;;;;;15.48;8.27;;;14.40;99.90;;;;;;5023230;28;20490;-84
2022/06/11 03:34:45;;;;;;;16.92;8.75;;;14.30;99.90;;;;;;5051883;28;20251;-84
2022/06/11 03:37:11;;;;;;;17.45;9.82;;;14.30;99.90;;;;;;5050787;28;20048;-85
2022/06/11 03:39:37;;;;;;;16.70;9.73;;;14.20;99.90;;;;;;5046484;28;20070;-85
2022/06/11 03:42:03;;;;;;;16.60;10.57;;;14.10;99.90;;;;;;5015160;28;20053;-84
2022/06/11 03:44:29;;;;;;;24.55;11.38;;;14.10;99.90;;;;;;5019898;28;20091;-84
2022/06/11 03:46:56;;;;;;;17.40;11.52;;;14.10;99.90;;;;;;5015417;28;20049;-84
2022/06/11 03:49:22;;;;;;;19.70;12.00;;;14.10;99.90;;;;;;5024422;28;20048;-84
2022/06/11 03:51:47;;;;;;;24.30;12.77;;;14.20;99.90;;;;;;5047862;28;20049;-84
2022/06/11 03:54:14;;;;;;;20.48;12.20;;;14.40;99.90;;;;;;5051648;28;20047;-84
2022/06/11 03:56:41;;;;;;;24.48;12.45;;;14.50;99.90;;;;;;5024215;28;20113;-84
2022/06/11 03:59:08;;;;;;;24.83;13.18;;;14.60;99.90;;;;;;5033351;28;20091;-84
2022/06/11 04:01:34;;;;;;;19.00;12.60;;;14.50;99.90;;;;;;5048715;28;20036;-85
2022/06/11 04:04:08;;;;;;;19.98;13.50;;;14.50;99.90;;;;;;5039620;28;20103;-84
2022/06/11 04:06:37;;;;;;;20.30;14.38;;;14.50;99.90;;;;;;5041960;28;20053;-84
2022/06/11 04:09:06;;;;;;;24.33;13.88;;;14.40;99.90;;;;;;5047001;28;20056;-84
2022/06/11 04:11:32;;;;;;;23.55;15.20;;;14.40;99.90;;;;;;5021595;28;20143;-84
2022/06/11 04:13:58;;;;;;;29.33;14.07;;;14.40;99.90;;;;;;5037850;28;20052;-84
2022/06/11 04:16:31;;;;;;;25.75;13.85;;;14.30;99.90;;;;;;5031800;28;20103;-84
2022/06/11 04:19:00;;;;;;;21.30;13.10;;;14.30;99.90;;;;;;5044174;28;20060;-84
2022/06/11 04:21:28;;;;;;;23.60;13.45;;;14.30;99.90;;;;;;5049506;28;20076;-84
2022/06/11 04:23:56;;;;;;;26.42;13.85;;;14.30;99.90;;;;;;5042437;28;20067;-85
2022/06/11 04:26:27;;;;;;;19.92;13.88;;;14.30;99.90;;;;;;5052696;28;20055;-83
2022/06/11 04:28:55;;;;;;;20.23;13.98;;;14.30;99.90;;;;;;5039118;28;20057;-84
2022/06/11 04:31:22;;;;;;;24.08;14.45;;;14.30;99.90;;;;;;5030060;28;20036;-84
2022/06/11 04:33:48;;;;;;;28.90;13.93;;;14.30;99.90;;;;;;5051888;28;20481;-84
2022/06/11 04:36:16;;;;;;;22.13;13.93;;;14.30;99.90;;;;;;5018320;28;20128;-84
2022/06/11 04:38:42;;;;;;;21.23;13.60;;;14.30;99.90;;;;;;5019010;28;20056;-84
2022/06/11 04:41:08;;;;;;;21.15;13.35;;;14.30;99.90;;;;;;5022440;28;20136;-84
2022/06/11 04:43:34;;;;;;;20.02;12.20;;;14.30;99.90;;;;;;5026982;28;20127;-86
2022/06/11 04:46:01;;;;;;;18.52;11.48;;;14.30;99.90;;;;;;5027338;28;20592;-85
2022/06/11 04:48:26;;;;;;;18.80;11.65;;;14.30;99.90;;;;;;5033416;28;20101;-83
2022/06/11 04:50:52;;;;;;;18.98;12.27;;;14.40;99.90;;;;;;5049756;28;20842;-84
2022/06/11 04:53:18;;;;;;;21.70;11.43;;;14.40;99.90;;;;;;5021133;28;20041;-84
2022/06/11 04:55:45;;;;;;;21.17;11.00;;;14.40;99.90;;;;;;5047764;28;20040;-84
2022/06/11 04:58:11;;;;;;;19.08;10.07;;;14.40;99.90;;;;;;5047028;28;20132;-84
2022/06/11 05:00:37;;;;;;;19.70;10.13;;;14.50;99.90;;;;;;5031979;28;20041;-86
2022/06/11 05:03:03;;;;;;;16.00;9.20;;;14.50;99.90;;;;;;5028045;28;20056;-85
2022/06/11 05:05:30;;;;;;;23.35;10.57;;;14.50;99.90;;;;;;5023835;28;20084;-84
2022/06/11 05:07:59;;;;;;;15.65;8.50;;;14.50;99.90;;;;;;5021148;28;20056;-84
2022/06/11 05:10:27;;;;;;;19.67;8.65;;;14.60;99.90;;;;;;5020194;28;20076;-84
2022/06/11 05:12:53;;;;;;;20.23;7.55;;;14.60;99.90;;;;;;5049758;28;20429;-84
2022/06/11 05:15:20;;;;;;;18.88;6.90;;;14.60;99.90;;;;;;5030461;28;20142;-84
2022/06/11 05:17:45;;;;;;;20.77;6.85;;;14.70;99.90;;;;;;5022252;28;20056;-83
2022/06/11 05:20:13;;;;;;;13.55;6.30;;;14.70;99.90;;;;;;5023403;28;20049;-85
2022/06/11 05:22:39;;;;;;;16.75;5.78;;;14.70;99.90;;;;;;5048170;28;20501;-86
2022/06/11 05:25:05;;;;;;;16.23;5.30;;;14.80;99.90;;;;;;5022031;28;20089;-83
2022/06/11 05:27:31;;;;;;;16.40;5.28;;;14.80;99.90;;;;;;5065395;28;20044;-84
2022/06/11 05:30:06;;;;;;;18.95;5.53;;;14.90;99.90;;;;;;5034951;28;20421;-84
2022/06/11 05:32:35;;;;;;;11.33;5.33;;;14.90;99.90;;;;;;5031978;28;20534;-84
2022/06/11 05:35:03;;;;;;;21.83;5.15;;;15.00;99.90;;;;;;5026829;28;20055;-83
2022/06/11 05:37:28;;;;;;;18.35;5.28;;;15.00;99.90;;;;;;5020658;28;20072;-84
2022/06/11 05:39:57;;;;;;;18.92;5.18;;;15.10;99.90;;;;;;5038736;28;20045;-83
2022/06/11 05:42:24;;;;;;;13.20;4.57;;;15.10;99.90;;;;;;5040066;28;20048;-83
2022/06/11 05:44:50;;;;;;;13.57;3.97;;;15.20;99.90;;;;;;5019730;28;20045;-84
2022/06/11 05:47:20;;;;;;;17.90;4.30;;;15.30;99.90;;;;;;5034350;28;20390;-84
2022/06/11 05:49:49;;;;;;;23.00;4.80;;;15.40;99.90;;;;;;5028050;28;20044;-83
2022/06/11 05:52:19;;;;;;;19.25;4.10;;;15.50;99.90;;;;;;5021391;28;20059;-83
2022/06/11 05:54:47;;;;;;;18.02;4.00;;;15.50;99.90;;;;;;5022739;28;20095;-84
2022/06/11 05:57:16;;;;;;;18.80;4.63;;;15.60;99.90;;;;;;5049159;28;20083;-85
2022/06/11 05:59:46;;;;;;;20.63;3.80;;;15.60;99.90;;;;;;5047505;28;20049;-86
2022/06/11 06:02:15;;;;;;;15.68;4.10;;;15.70;99.90;;;;;;5048707;28;20052;-85
2022/06/11 06:04:41;;;;;;;21.30;4.53;;;15.80;99.90;;;;;;5054241;28;20473;-84
2022/06/11 06:07:08;;;;;;;19.77;4.85;;;15.90;99.90;;;;;;5054163;28;20059;-84
2022/06/11 06:09:35;;;;;;;19.38;4.40;;;16.00;99.90;;;;;;5047542;28;20037;-83
2022/06/11 06:12:00;;;;;;;16.42;4.75;;;16.20;99.90;;;;;;5034492;28;20048;-84
2022/06/11 06:14:26;;;;;;;18.65;4.38;;;16.40;99.90;;;;;;5049435;28;20060;-84
2022/06/11 06:16:52;;;;;;;15.73;4.20;;;16.50;99.90;;;;;;5049796;28;20057;-84
2022/06/11 06:19:18;;;;;;;23.73;4.47;;;16.50;99.90;;;;;;5008609;28;20048;-85
2022/06/11 06:21:44;;;;;;;16.33;3.97;;;16.60;99.90;;;;;;5021468;28;20045;-84
2022/06/11 06:24:10;;;;;;;19.55;4.55;;;16.70;99.90;;;;;;5045322;28;20055;-85
2022/06/11 06:26:36;;;;;;;22.77;4.60;;;16.80;99.90;;;;;;5034530;28;20044;-83
2022/06/11 06:29:03;;;;;;;15.60;4.53;;;16.90;99.90;;;;;;5026345;28;20482;-84
2022/06/11 06:31:29;;;;;;;16.45;4.70;;;17.10;99.90;;;;;;5046686;28;20132;-83
2022/06/11 06:33:58;;;;;;;21.45;4.15;;;17.20;99.90;;;;;;5026432;28;20128;-83
2022/06/11 06:36:24;;;;;;;18.63;5.05;;;17.40;99.90;;;;;;5023126;28;20049;-84
2022/06/11 06:38:51;;;;;;;20.95;4.68;;;17.50;99.90;;;;;;5035292;28;20052;-87
2022/06/11 06:41:17;;;;;;;21.10;4.50;;;17.60;99.90;;;;;;5021744;28;20132;-84
2022/06/11 06:43:43;;;;;;;18.35;4.75;;;17.70;99.90;;;;;;5040551;28;20080;-83
2022/06/11 06:46:09;;;;;;;18.00;4.18;;;17.70;99.90;;;;;;5015353;28;20128;-84
2022/06/11 06:48:35;;;;;;;22.60;4.88;;;17.70;99.90;;;;;;5005225;28;20163;-83
2022/06/11 06:51:02;;;;;;;19.50;4.93;;;17.90;99.90;;;;;;5028256;28;20049;-83
2022/06/11 06:53:28;;;;;;;18.90;4.32;;;17.90;99.90;;;;;;5027435;28;20772;-83
2022/06/11 06:55:54;;;;;;;18.02;4.43;;;17.90;99.90;;;;;;5023393;28;20044;-85
2022/06/11 06:58:20;;;;;;;22.23;4.80;;;18.20;99.90;;;;;;5051010;28;20045;-84
2022/06/11 07:00:46;;;;;;;20.75;4.55;;;18.50;99.90;;;;;;5039853;28;20045;-83
2022/06/11 07:03:13;;;;;;;20.10;4.57;;;18.60;99.90;;;;;;5040664;28;20048;-84
2022/06/11 07:05:40;;;;;;;19.23;5.13;;;18.70;99.90;;;;;;5032199;28;20090;-84
2022/06/11 07:08:06;;;;;;;17.77;4.05;;;18.80;99.90;;;;;;5030355;28;20124;-84
2022/06/11 07:10:33;;;;;;;18.00;4.03;;;18.80;99.90;;;;;;5024534;28;20055;-83
2022/06/11 07:13:00;;;;;;;20.63;4.10;;;19.00;99.90;;;;;;5024471;28;20538;-84
2022/06/11 07:15:27;;;;;;;17.70;4.35;;;19.10;99.90;;;;;;4991512;28;20065;-83
2022/06/11 07:17:57;;;;;;;17.65;4.72;;;19.10;99.90;;;;;;5015678;28;20165;-84
2022/06/11 07:20:25;;;;;;;23.17;5.00;;;19.20;99.90;;;;;;5017805;28;20045;-84
2022/06/11 07:22:55;;;;;;;21.42;3.97;;;19.40;99.90;;;;;;5026429;28;20057;-85
2022/06/11 07:25:21;;;;;;;17.17;4.22;;;19.60;99.90;;;;;;5019167;28;20045;-84
2022/06/11 07:27:52;;;;;;;17.88;3.90;;;19.80;99.90;;;;;;5026039;28;20050;-84
2022/06/11 07:30:21;;;;;;;19.73;4.20;;;19.80;99.90;;;;;;5027411;28;20392;-83
2022/06/11 07:32:53;;;;;;;17.38;4.18;;;19.70;99.90;;;;;;5009437;28;20049;-84
2022/06/11 07:35:19;;;;;;;21.10;4.85;;;19.90;99.90;;;;;;5022298;28;20056;-84
2022/06/11 07:37:48;;;;;;;17.48;4.20;;;19.90;99.90;;;;;;4997632;28;20077;-83
2022/06/11 07:40:15;;;;;;;18.48;4.20;;;20.00;99.90;;;;;;5003193;28;20348;-84
2022/06/11 07:42:40;;;;;;;24.73;3.75;;;20.20;99.90;;;;;;5007768;28;20488;-84
2022/06/11 07:45:07;;;;;;;18.15;4.85;;;20.50;99.90;;;;;;5021841;28;20061;-84
2022/06/11 07:50:17;;;;;;;17.30;4.07;;;20.80;99.90;;;;;;5002840;28;20803;-86
2022/06/11 07:52:43;;;;;;;18.10;3.88;;;21.20;99.90;;;;;;5012441;28;20042;-84
2022/06/11 07:55:10;;;;;;;17.70;4.07;;;21.80;99.90;;;;;;5008048;28;20056;-84
2022/06/11 07:57:38;;;;;;;14.80;3.60;;;22.00;99.70;;;;;;5018671;28;20087;-84
2022/06/11 08:00:08;;;;;;;18.90;4.05;;;22.20;99.90;;;;;;4977149;28;20042;-85
2022/06/11 08:02:33;;;;;;;17.45;4.05;;;22.20;95.40;;;;;;5027449;28;20041;-85
2022/06/11 08:04:59;;;;;;;21.73;4.45;;;22.20;97.70;;;;;;5003291;28;20057;-86
2022/06/11 08:07:27;;;;;;;23.52;4.85;;;22.40;99.10;;;;;;5018533;28;20241;-83
2022/06/11 08:09:56;;;;;;;19.10;4.25;;;22.70;95.30;;;;;;5009031;28;20093;-85
2022/06/11 08:12:23;;;;;;;18.05;4.75;;;22.70;92.60;;;;;;5022728;28;20129;-83
2022/06/11 08:14:48;;;;;;;21.92;4.32;;;22.60;93.10;;;;;;5012552;28;20136;-82
2022/06/11 08:17:14;;;;;;;17.90;4.03;;;23.00;91.20;;;;;;5024436;28;20041;-81
2022/06/11 08:19:40;;;;;;;16.25;4.60;;;23.00;88.00;;;;;;4997532;28;20128;-81
2022/06/11 08:22:05;;;;;;;17.15;3.55;;;23.00;86.50;;;;;;5026863;28;20088;-82
2022/06/11 08:24:31;;;;;;;20.00;4.60;;;23.40;86.30;;;;;;5038331;28;20053;-82
2022/06/11 08:26:57;;;;;;;15.10;3.78;;;23.20;82.00;;;;;;5045288;28;20048;-82
2022/06/11 08:29:22;;;;;;;17.45;3.90;;;23.00;81.20;;;;;;5045485;28;20087;-85
2022/06/11 08:31:48;;;;;;;21.48;3.65;;;23.20;79.00;;;;;;5042088;28;20044;-83
2022/06/11 08:34:14;;;;;;;16.67;3.78;;;23.50;75.60;;;;;;5014258;28;20083;-84
2022/06/11 08:36:39;;;;;;;17.38;3.88;;;23.70;75.90;;;;;;5041976;28;20033;-83
2022/06/11 08:39:05;;;;;;;14.02;4.20;;;23.60;74.00;;;;;;5012340;28;20090;-88
2022/06/11 08:41:37;;;;;;;17.25;3.30;;;23.90;72.60;;;;;;5018076;28;20041;-85
2022/06/11 08:44:10;;;;;;;19.20;3.88;;;23.60;68.00;;;;;;5022682;28;20053;-85
2022/06/11 08:46:40;;;;;;;15.80;3.30;;;23.20;69.20;;;;;;5036441;28;20051;-85
2022/06/11 08:49:11;;;;;;;16.17;3.65;;;23.30;69.90;;;;;;5023134;28;20056;-88
2022/06/11 08:51:51;;;;;;;19.75;4.05;;;22.80;72.50;;;;;;5019461;28;20077;-85
2022/06/11 08:54:20;;;;;;;22.77;4.60;;;22.80;72.40;;;;;;5022903;28;20073;-84
2022/06/11 08:57:03;;;;;;;17.65;3.67;;;23.20;73.70;;;;;;5026187;28;20060;-85
2022/06/11 08:59:54;;;;;;;17.05;3.42;;;23.30;72.70;;;;;;5030480;28;20140;-86
2022/06/11 09:02:38;;;;;;;17.13;4.22;;;24.00;66.60;;;;;;5045214;28;20441;-85
2022/06/11 09:05:13;;;;;;;18.67;4.50;;;24.40;67.10;;;;;;5039125;28;20056;-86
2022/06/11 09:07:45;;;;;;;17.10;3.90;;;24.70;60.50;;;;;;5013646;28;20081;-86
2022/06/11 09:11:02;;;;;;;22.38;4.13;;;23.80;63.60;;;;;;5037428;28;20131;-89
2022/06/11 09:13:52;;;;;;;14.23;3.95;;;24.50;66.10;;;;;;5014768;28;20053;-86
2022/06/11 09:16:32;;;;;;;16.52;3.83;;;24.80;58.30;;;;;;5023577;28;20060;-87
2022/06/11 09:19:19;;;;;;;15.73;3.88;;;24.10;62.50;;;;;;5049334;28;20383;-86
2022/06/11 09:22:07;;;;;;;16.60;3.95;;;24.50;62.90;;;;;;5041981;28;20071;-85
2022/06/11 09:24:54;;;;;;;15.55;3.38;;;25.30;56.10;;;;;;5026333;28;20552;-86
2022/06/11 09:27:44;;;;;;;14.25;2.70;;;25.60;53.60;;;;;;5050030;28;20072;-85
2022/06/11 09:30:22;;;;;;;19.08;3.15;;;25.80;54.40;;;;;;5041941;28;20055;-84
2022/06/11 09:33:01;;;;;;;11.73;2.60;;;26.00;50.60;;;;;;5024866;28;20036;-85
2022/06/11 09:36:02;;;;;;;13.60;2.80;;;26.00;49.80;;;;;;5045324;28;20547;-86
2022/06/11 09:38:35;;;;;;;11.05;2.97;;;26.20;48.10;;;;;;5027354;28;20053;-84
2022/06/11 09:41:24;;;;;;;14.73;3.22;;;26.30;49.10;;;;;;5036762;28;20124;-85
2022/06/11 09:44:03;;;;;;;12.15;3.05;;;26.70;45.70;;;;;;5051119;28;20135;-84
2022/06/11 09:46:51;;;;;;;11.00;3.05;;;27.00;47.00;;;;;;5048431;28;20409;-84
2022/06/11 09:49:57;;;;;;;10.73;2.60;;;27.20;45.80;;;;;;5041027;28;20127;-89
2022/06/11 09:53:09;;;;;;;9.90;2.80;;;26.80;43.40;;;;;;5049070;28;20051;-83
2022/06/11 09:55:42;;;;;;;10.73;2.70;;;27.50;45.70;;;;;;5031815;28;20762;-85
2022/06/11 09:58:19;;;;;;;11.65;2.90;;;28.60;44.60;;;;;;5025017;28;20056;-86
2022/06/11 10:00:48;;;;;;;8.25;2.35;;;29.20;42.30;;;;;;5027256;28;20053;-86
2022/06/11 10:03:31;;;;;;;10.07;2.40;;;28.70;40.70;;;;;;5047949;28;20056;-86
2022/06/11 10:06:22;;;;;;;11.32;2.53;;;27.90;39.00;;;;;;5059197;28;20393;-86
2022/06/11 10:09:02;;;;;;;11.18;2.20;;;27.60;40.90;;;;;;5028632;28;20516;-86
2022/06/11 10:11:58;;;;;;;10.05;2.42;;;27.10;40.90;;;;;;5030705;28;20134;-86
2022/06/11 10:14:33;;;;;;;9.93;2.60;;;27.50;41.60;;;;;;5050876;28;20053;-85
2022/06/11 10:17:15;;;;;;;10.05;2.38;;;27.70;41.90;;;;;;5029046;28;20048;-84
2022/06/11 10:19:47;;;;;;;14.70;3.00;;;27.70;40.00;;;;;;5038110;28;20043;-85
2022/06/11 10:22:16;;;;;;;11.85;2.80;;;28.00;40.40;;;;;;5031803;28;20044;-84
2022/06/11 10:24:54;;;;;;;11.60;2.53;;;28.10;41.50;;;;;;5031414;28;20044;-85
2022/06/11 10:27:24;;;;;;;9.48;2.25;;;28.00;39.50;;;;;;5050807;28;20121;-84
2022/06/11 10:29:54;;;;;;;13.40;2.55;;;27.50;40.10;;;;;;5046801;28;20079;-84
2022/06/11 10:32:22;;;;;;;11.18;2.53;;;27.70;40.30;;;;;;5027360;28;20036;-85
2022/06/11 10:34:56;;;;;;;10.00;2.33;;;27.90;39.90;;;;;;5038090;28;20056;-84
2022/06/11 10:37:32;;;;;;;11.13;2.95;;;27.40;38.60;;;;;;5027336;28;20043;-86
2022/06/11 10:39:57;;;;;;;11.80;2.60;;;26.90;40.80;;;;;;5045920;28;20149;-85
2022/06/11 10:43:04;;;;;;;8.48;2.15;;;27.00;41.30;;;;;;5034361;28;20052;-87
2022/06/11 10:45:31;;;;;;;9.27;2.92;;;26.20;39.20;;;;;;5035913;28;20063;-85
2022/06/11 10:48:01;;;;;;;10.07;2.30;;;26.10;41.90;;;;;;5048337;28;20067;-85
2022/06/11 10:50:33;;;;;;;11.32;2.50;;;26.90;40.80;;;;;;5029741;28;20064;-85
2022/06/11 10:53:10;;;;;;;10.77;2.22;;;27.40;40.60;;;;;;5050881;28;20186;-85
2022/06/11 10:55:47;;;;;;;9.90;2.53;;;27.80;39.60;;;;;;5025296;28;20055;-85
2022/06/11 10:58:36;;;;;;;9.13;2.40;;;28.00;39.20;;;;;;5046746;28;20127;-85
2022/06/11 11:01:14;;;;;;;8.45;2.25;;;28.00;36.50;;;;;;5047942;28;20521;-86
2022/06/11 11:03:58;;;;;;;10.13;2.00;;;28.60;38.60;;;;;;5021204;28;20049;-86
2022/06/11 11:06:28;;;;;;;9.95;2.60;;;27.60;38.30;;;;;;5037284;28;20037;-85
2022/06/11 11:08:58;;;;;;;9.98;2.92;;;27.30;38.80;;;;;;5054229;28;20052;-85
2022/06/11 11:11:32;;;;;;;8.93;2.53;;;26.90;39.30;;;;;;5037050;28;20130;-85
2022/06/11 11:14:16;;;;;;;12.43;2.97;;;25.90;41.10;;;;;;5052872;28;20056;-85
2022/06/11 11:16:47;;;;;;;9.52;2.55;;;25.50;42.30;;;;;;5025411;28;20048;-86
2022/06/11 11:19:25;;;;;;;11.20;2.40;;;24.90;42.80;;;;;;5023634;28;20049;-85
2022/06/11 11:21:58;;;;;;;9.85;2.63;;;25.20;43.40;;;;;;5040522;28;20367;-84
2022/06/11 11:24:45;;;;;;;10.20;2.03;;;25.30;42.60;;;;;;5046830;28;20482;-84
2022/06/11 11:27:25;;;;;;;11.93;2.13;;;25.70;41.60;;;;;;5052080;28;20132;-85
2022/06/11 11:29:55;;;;;;;10.13;2.50;;;26.50;42.20;;;;;;5036930;28;20641;-84
2022/06/11 11:32:37;;;;;;;10.80;2.50;;;27.60;41.00;;;;;;5050271;28;20560;-84
2022/06/11 11:35:21;;;;;;;9.60;2.65;;;28.10;38.60;;;;;;5027842;28;20083;-84
2022/06/11 11:38:11;;;;;;;12.15;2.30;;;28.10;35.90;;;;;;5038538;28;20060;-84
2022/06/11 11:40:54;;;;;;;7.97;2.55;;;28.30;37.10;;;;;;5022001;28;20075;-85
2022/06/11 11:43:21;;;;;;;9.77;2.42;;;28.40;36.40;;;;;;5017431;28;20037;-84
2022/06/11 11:46:03;;;;;;;9.18;2.28;;;28.80;37.40;;;;;;5046683;28;20499;-85
2022/06/11 11:48:42;;;;;;;12.07;2.92;;;29.60;35.80;;;;;;5017313;28;20057;-85
2022/06/11 11:51:12;;;;;;;9.40;2.60;;;29.50;35.70;;;;;;5036650;28;20089;-85
2022/06/11 11:53:48;;;;;;;10.82;2.40;;;29.50;36.10;;;;;;5036558;28;20371;-85
2022/06/11 11:56:22;;;;;;;8.63;2.50;;;29.90;35.00;;;;;;5049352;28;20071;-85
2022/06/11 11:58:54;;;;;;;9.00;2.33;;;29.40;35.00;;;;;;5034379;28;20077;-85
2022/06/11 12:01:22;;;;;;;7.45;1.95;;;29.70;35.00;;;;;;5037202;28;20036;-84
2022/06/11 12:03:57;;;;;;;9.60;2.75;;;30.20;33.90;;;;;;5049880;28;20053;-85
2022/06/11 12:06:43;;;;;;;10.38;2.05;;;29.60;34.50;;;;;;5052473;28;20076;-85
2022/06/11 12:09:28;;;;;;;14.82;2.47;;;29.80;34.70;;;;;;5053629;28;20048;-85
2022/06/11 12:12:08;;;;;;;14.32;3.05;;;30.00;33.00;;;;;;5046702;28;20055;-85
2022/06/11 12:14:45;;;;;;;9.57;2.60;;;29.70;33.70;;;;;;5043645;28;20494;-86
2022/06/11 12:17:38;;;;;;;10.40;2.97;;;30.10;34.20;;;;;;5025350;28;20060;-85
2022/06/11 12:20:29;;;;;;;7.40;2.28;;;30.50;33.20;;;;;;5030192;28;20174;-85
2022/06/11 12:23:13;;;;;;;12.35;2.90;;;31.10;33.10;;;;;;5051003;28;20048;-84
2022/06/11 12:26:01;;;;;;;10.05;2.45;;;31.20;31.70;;;;;;5016347;28;20379;-85
2022/06/11 12:28:38;;;;;;;10.90;2.38;;;30.50;31.80;;;;;;5033764;28;20102;-85
2022/06/11 12:31:04;;;;;;;10.85;2.58;;;29.50;34.20;;;;;;5035579;28;20083;-85
2022/06/11 12:33:30;;;;;;;9.82;2.30;;;29.90;34.30;;;;;;5042810;28;20477;-84
2022/06/11 12:36:11;;;;;;;10.90;2.38;;;29.50;33.50;;;;;;5039557;28;20052;-84
2022/06/11 12:38:48;;;;;;;9.57;2.80;;;29.00;34.70;;;;;;5024102;28;20060;-84
2022/06/11 12:41:38;;;;;;;13.15;2.40;;;29.30;34.90;;;;;;5027595;28;20173;-84
2022/06/11 12:44:24;;;;;;;11.07;2.35;;;28.80;36.20;;;;;;5043181;28;20045;-83
2022/06/11 12:46:53;;;;;;;;;;;29.10;35.80;;;;;;5019897;28;20386;-85
2022/06/11 12:49:49;;;;;;;8.65;2.22;;;29.20;34.30;;;;;;5038927;28;19931;-84
2022/06/11 12:52:24;;;;;;;9.45;2.53;;;29.80;36.20;;;;;;5044390;28;20064;-84
2022/06/11 12:55:41;;;;;;;10.18;2.60;;;30.20;35.10;;;;;;5030892;28;20103;-84
2022/06/11 12:58:09;;;;;;;8.27;2.38;;;30.60;35.40;;;;;;4935881;28;20138;-86
2022/06/11 13:00:50;;;;;;;11.32;2.92;;;31.10;33.70;;;;;;5025219;28;20610;-84
2022/06/11 13:03:35;;;;;;;9.73;2.28;;;30.80;32.10;;;;;;5012280;28;20053;-83
2022/06/11 13:06:32;;;;;;;10.85;3.13;;;29.70;33.90;;;;;;5045333;28;20044;-82
2022/06/11 13:09:14;;;;;;;12.98;2.50;;;29.30;34.60;;;;;;5044827;28;20060;-83
2022/06/11 13:12:03;;;;;;;10.48;2.40;;;28.60;35.40;;;;;;5026013;28;20043;-83